MAYO2: W. D. Mayo Lock And Dam (L&D 14)

Data processed at Sat Dec 09 2017 23:30


All information presented herein is the property of the government of the United States of America and may be revised or deleted at any time without prior notice.
Dissemination of this information without the expressed written consent of the Public Affairs Office, Tulsa District U.S. Army Corps of Engineers is strictly prohibited.
These data are gathered electronically and, as presented, have not undergone any form of quality control. These data are not guaranteed to be valid or correct.
Go to home page.
Go to station list.

Upstream stations:

Downstream station:
Previous Day
Next Day
Current Day
    
SHEF ID:       MAYO2     W. D. Mayo Lock And Dam (L&D 14)
STATION TYPE:  NAVIGATION LOCK
Normal Pool:  Bottom =   411.00, Top =   413.00

               PRECIP ELEVATION   STORAGE   TW-ELEV LOCK-ELEV    INFLOW   RELEASE  AIR-TEMP  WIND-DIRWIND-SPEED REL-HUMID SOLAR-RAD   VOLTAGE  BAT-LOAD
                   in        ft     ac-ft        ft        ft       cfs       cfs         F       deg       mph         %      W/m2      volt      volt
              Ccp-Rev   Ccp-Rev   Ccp-Rev   Ccp-Rev   Ccp-Rev  Regi-Rev  Regi-Rev   Ccp-Rev   Ccp-Rev   Ccp-Rev   Ccp-Rev   Ccp-Rev   Ccp-Rev   Ccp-Rev
(US/Central)
12/07 00:00      0.00    412.48     14903    393.27    393.38     10125         0     32.18    211.40      1.50     73.80      0.00     13.57     13.44
12/07 01:00      0.00    412.56     15027    392.99    412.72      9809         0     31.44    217.40      1.60     79.24      0.00     13.58     13.44
12/07 02:00      0.00    412.51     14949    392.49    392.69     10176     18558     31.23    233.30      1.60     80.47      0.00     13.58     13.44
12/07 03:00      0.00    412.39     14765    392.50    392.71     15594     18518     31.73    261.70      2.10     76.00      0.00     13.58     13.44
12/07 04:00      0.00    412.30     14626    392.75    392.98     16338     18467     38.21    326.90      7.70     62.00      0.00     13.59     13.44
12/07 05:00      0.00    412.76     15339    392.13    392.08     16441     18558     37.87    332.00     10.60     64.45      0.00     13.56     13.44
12/07 06:00      0.00    411.97     14127    391.25    391.40     13478     18477     35.85    328.70      8.80     53.76      0.00     13.55     13.44
12/07 07:00      0.00    412.08     14293    391.74    391.97     10120     18321     33.66    331.00      7.70     51.21      0.00     13.54     13.44
12/07 08:00      0.00    412.17     14429    392.05    392.22      4682         0     32.13    312.00      5.60     55.06     20.60     13.54     13.44
12/07 09:00      0.00    411.97     14127    391.45    391.57      3920         0     32.23    310.00      7.20     56.00    157.70     13.54     13.44
12/07 10:00      0.00    412.17     14429    391.18    391.36       359         0     32.16    301.00      7.80     54.85    311.50     13.54     13.44
12/07 11:00      0.00    412.05     14247    391.50    391.63        65         0     33.19    312.70      8.80     53.19    419.20     13.56     13.44
12/07 12:00      0.00    412.07     14278    391.25    391.42       130         0     33.96    324.10     10.30     50.64    445.50     13.57     13.53
12/07 13:00      0.00    412.07     14278    391.54    391.43       240         0     36.01    320.10      8.20     46.03    506.40     13.58     13.53
12/07 14:00      0.00    412.09     14308    391.37    391.51      2550         0     37.45    326.00     10.40     39.91    460.50     13.58     13.44
12/07 15:00      0.00    412.12     14353    391.47    391.65      2485         0     38.62    318.80      8.30     34.99    331.80     13.59     13.44
12/07 16:00      0.00    412.74     15308    391.29    391.47      2485         0     38.88    322.60      8.70     33.84    224.00     13.58     13.53
12/07 17:00      0.00    412.74     15308    393.02    393.25      8851         0     38.01    328.80      9.90     35.08     47.90     13.58     13.44
12/07 18:00      0.00    412.67     15198    393.23    393.35     13330         0     36.59    330.30      8.70     35.37      0.00     13.58     13.44
12/07 19:00      0.00    412.61     15105    393.14    393.26     16098     25448     35.29    328.80      6.50     37.81      0.00     13.58     13.44
12/07 20:00      0.00    412.59     15073    393.08    393.25     19591     25635     34.43    325.80      6.80     40.96      0.00     13.58     13.44
12/07 21:00      0.00    412.55     15011    393.15    393.30     26037     25583     30.97    269.50      2.30     41.88      0.00     13.58     13.44
12/07 22:00      0.00    412.52     14965    393.11    393.28     23900     25435     28.94    277.80      2.10     46.62      0.00     13.58     13.44
12/07 23:00      0.00    412.88     15528    391.94    392.08     21155     25414     28.04    272.70      2.50     49.45      0.00     13.58     13.44